createdAt,value
2023-05-04T00:00:54.339Z,17.52
2023-05-04T00:05:57.200Z,16.05
2023-05-04T00:11:00.108Z,17.45
2023-05-04T00:16:03.217Z,16.77
2023-05-04T00:21:06.807Z,16.17
2023-05-04T00:26:09.738Z,15.05
2023-05-04T00:31:13.576Z,15.77
2023-05-04T00:36:16.564Z,14.27
2023-05-04T00:41:20.298Z,14.13
2023-05-04T00:46:23.627Z,13.93
2023-05-04T00:51:27.546Z,12.75
2023-05-04T00:56:30.767Z,11.55
2023-05-04T01:01:33.618Z,12.20
2023-05-04T01:06:48.396Z,13.05
2023-05-04T01:12:00.638Z,12.23
2023-05-04T01:17:05.876Z,11.98
2023-05-04T01:27:22.999Z,12.68
2023-05-04T01:32:28.519Z,13.05
2023-05-04T01:37:34.015Z,12.80
2023-05-04T01:42:36.903Z,13.38
2023-05-04T01:47:40.773Z,13.70
2023-05-04T01:52:43.785Z,13.77
2023-05-04T01:57:47.178Z,12.75
2023-05-04T02:02:50.169Z,12.70
2023-05-04T02:07:55.448Z,13.60
2023-05-04T02:12:58.485Z,14.30
2023-05-04T02:18:01.782Z,13.63
2023-05-04T02:23:04.743Z,14.20
2023-05-04T02:28:07.843Z,14.48
2023-05-04T02:33:11.201Z,14.93
2023-05-04T02:38:14.214Z,16.08
2023-05-04T02:43:17.636Z,17.25
2023-05-04T02:48:20.397Z,18.13
2023-05-04T02:53:23.717Z,17.58
2023-05-04T02:58:26.746Z,15.68
2023-05-04T03:03:29.972Z,16.42
2023-05-04T03:08:32.940Z,14.25
2023-05-04T03:13:35.922Z,12.05
2023-05-04T03:23:59.972Z,9.50
2023-05-04T03:29:03.644Z,8.63
2023-05-04T03:34:06.757Z,8.30
2023-05-04T03:39:09.913Z,8.18
2023-05-04T03:44:12.886Z,8.07
2023-05-04T03:49:16.190Z,8.80
2023-05-04T03:54:19.648Z,6.80
2023-05-04T03:59:22.680Z,7.00
2023-05-04T04:04:26.070Z,6.30
2023-05-04T04:09:29.395Z,6.90
2023-05-04T04:14:32.689Z,5.90
2023-05-04T04:19:35.818Z,4.57
2023-05-04T04:24:38.780Z,3.53
2023-05-04T04:29:41.971Z,3.92
2023-05-04T04:34:45.340Z,3.70
2023-05-04T04:39:48.320Z,4.53
2023-05-04T04:44:52.624Z,4.80
2023-05-04T04:49:55.700Z,4.40
2023-05-04T04:54:58.541Z,3.90
2023-05-04T05:00:02.220Z,3.65
2023-05-04T05:05:08.424Z,3.72
2023-05-04T05:10:11.645Z,3.65
2023-05-04T05:15:14.799Z,2.63
2023-05-04T05:20:17.714Z,3.20
2023-05-04T05:25:20.773Z,2.85
2023-05-04T05:30:23.763Z,3.38
2023-05-04T05:35:26.613Z,6.35
2023-05-04T05:40:29.827Z,2.47
2023-05-04T05:45:32.632Z,3.28
2023-05-04T05:50:35.690Z,2.90
2023-05-04T05:55:38.565Z,2.83
2023-05-04T06:00:41.465Z,3.20
2023-05-04T06:05:44.484Z,2.67
2023-05-04T06:10:47.386Z,3.00
2023-05-04T06:15:54.161Z,3.30
2023-05-04T06:21:01.059Z,2.65
2023-05-04T06:26:08.636Z,3.00
2023-05-04T06:31:11.466Z,4.00
2023-05-04T06:36:14.586Z,4.60
2023-05-04T06:41:19.923Z,3.67
2023-05-04T06:51:25.747Z,3.80
2023-05-04T06:56:28.595Z,3.55
2023-05-04T07:01:31.669Z,3.63
2023-05-04T07:06:34.725Z,3.67
2023-05-04T07:11:37.768Z,4.07
2023-05-04T07:16:41.029Z,2.80
2023-05-04T07:21:44.084Z,3.70
2023-05-04T07:26:46.986Z,3.40
2023-05-04T07:31:49.876Z,3.00
2023-05-04T07:36:52.728Z,5.75
2023-05-04T07:41:55.555Z,5.53
2023-05-04T07:47:02.165Z,4.32
2023-05-04T07:52:05.678Z,4.32
2023-05-04T07:57:08.544Z,4.30
2023-05-04T08:02:12.131Z,4.20
2023-05-04T08:07:19.286Z,3.83
2023-05-04T08:12:22.305Z,4.55
2023-05-04T08:17:25.490Z,3.78
2023-05-04T08:22:28.309Z,4.05
2023-05-04T08:27:31.267Z,4.70
2023-05-04T08:32:34.196Z,4.43
2023-05-04T08:37:37.757Z,5.00
2023-05-04T08:42:40.841Z,5.38
2023-05-04T08:47:43.923Z,6.85
2023-05-04T08:52:47.666Z,8.70
2023-05-04T08:57:51.336Z,7.95
2023-05-04T09:02:54.674Z,8.73
2023-05-04T09:07:58.637Z,7.63
2023-05-04T09:13:01.593Z,7.63
2023-05-04T09:18:06.284Z,7.30
2023-05-04T09:23:09.951Z,6.72
2023-05-04T09:33:17.500Z,6.50
2023-05-04T09:38:27.334Z,5.07
2023-05-04T09:43:45.186Z,4.72
2023-05-04T09:48:52.863Z,4.97
2023-05-04T09:53:58.801Z,5.55
2023-05-04T09:59:02.381Z,4.60
2023-05-04T10:04:05.520Z,4.53
2023-05-04T10:09:08.752Z,3.55
2023-05-04T10:14:11.746Z,4.35
2023-05-04T10:19:45.091Z,3.53
2023-05-04T10:25:20.688Z,3.10
2023-05-04T10:30:24.032Z,3.55
2023-05-04T10:35:28.256Z,3.50
2023-05-04T10:40:37.828Z,4.10
2023-05-04T10:45:42.249Z,2.67
2023-05-04T10:50:50.302Z,2.80
2023-05-04T10:55:53.481Z,4.57
2023-05-04T11:00:56.710Z,3.53
2023-05-04T11:05:59.862Z,3.53
2023-05-04T11:11:07.036Z,3.28
2023-05-04T11:16:13.028Z,2.95
2023-05-04T11:21:36.341Z,3.20
2023-05-04T11:26:49.703Z,2.95
2023-05-04T11:31:56.736Z,3.30
2023-05-04T11:36:59.883Z,3.13
2023-05-04T11:42:08.135Z,3.08
2023-05-04T11:47:11.051Z,3.08
2023-05-04T11:52:13.909Z,2.42
2023-05-04T11:57:23.819Z,3.00
2023-05-04T12:02:27.403Z,2.65
2023-05-04T12:07:30.649Z,2.88
2023-05-04T12:12:37.061Z,2.70
2023-05-04T12:17:41.930Z,3.72
2023-05-04T12:22:44.909Z,4.10
2023-05-04T12:27:47.801Z,3.63
2023-05-04T12:32:50.651Z,3.33
2023-05-04T12:37:53.867Z,3.05
2023-05-04T12:42:57.114Z,3.38
2023-05-04T12:48:00.278Z,3.22
2023-05-04T12:53:04.897Z,3.55
2023-05-04T12:58:07.804Z,4.55
2023-05-04T13:03:13.211Z,4.40
2023-05-04T13:08:18.933Z,4.18
2023-05-04T13:18:29.541Z,4.70
2023-05-04T13:23:32.406Z,4.40
2023-05-04T13:28:36.288Z,4.28
2023-05-04T13:33:41.621Z,3.63
2023-05-04T13:38:44.511Z,4.00
2023-05-04T13:43:47.458Z,4.28
2023-05-04T13:48:50.479Z,3.50
2023-05-04T13:53:53.311Z,3.22
2023-05-04T13:58:56.348Z,3.72
2023-05-04T14:03:59.408Z,4.50
2023-05-04T14:09:02.335Z,5.30
2023-05-04T14:14:05.155Z,4.30
2023-05-04T14:19:08.084Z,3.95
2023-05-04T14:24:11.095Z,3.60
2023-05-04T14:29:14.016Z,3.80
2023-05-04T14:34:17.314Z,4.18
2023-05-04T14:39:20.243Z,4.68
2023-05-04T14:44:23.674Z,4.90
2023-05-04T14:49:36.758Z,4.28
2023-05-04T14:54:43.521Z,4.57
2023-05-04T15:04:49.605Z,4.40
2023-05-04T15:09:52.510Z,4.72
2023-05-04T15:14:55.438Z,4.75
2023-05-04T15:19:58.436Z,4.95
2023-05-04T15:25:02.294Z,4.60
2023-05-04T15:30:09.311Z,4.97
2023-05-04T15:35:12.368Z,5.00
2023-05-04T15:40:15.427Z,5.20
2023-05-04T15:45:18.701Z,5.65
2023-05-04T15:50:22.197Z,5.85
2023-05-04T15:55:26.284Z,5.35
2023-05-04T16:00:30.127Z,5.00
2023-05-04T16:05:33.162Z,4.85
2023-05-04T16:10:36.653Z,5.25
2023-05-04T16:15:40.407Z,5.10
2023-05-04T16:20:43.442Z,5.90
2023-05-04T16:25:46.356Z,8.50
2023-05-04T16:30:50.060Z,7.88
2023-05-04T16:35:53.552Z,6.57
2023-05-04T16:40:56.508Z,5.38
2023-05-04T16:45:59.613Z,5.68
2023-05-04T16:51:02.532Z,5.97
2023-05-04T16:56:06.061Z,5.32
2023-05-04T17:01:10.955Z,5.68
2023-05-04T17:06:14.195Z,5.13
2023-05-04T17:11:17.246Z,5.55
2023-05-04T17:16:20.153Z,5.93
2023-05-04T17:21:23.219Z,6.18
2023-05-04T17:26:26.376Z,6.82
2023-05-04T17:31:29.362Z,6.30
2023-05-04T17:36:32.769Z,6.25
2023-05-04T17:41:35.827Z,6.20
2023-05-04T17:46:38.921Z,6.45
2023-05-04T17:51:41.894Z,6.88
2023-05-04T17:56:44.723Z,6.20
2023-05-04T18:01:47.580Z,7.13
2023-05-04T18:06:51.014Z,7.18
2023-05-04T18:11:54.029Z,6.93
2023-05-04T18:16:57.148Z,6.75
2023-05-04T18:22:00.150Z,6.97
2023-05-04T18:27:03.445Z,7.10
2023-05-04T18:32:09.318Z,6.70
2023-05-04T18:37:12.325Z,6.90
2023-05-04T18:42:15.255Z,6.88
2023-05-04T18:47:18.169Z,6.80
2023-05-04T18:52:22.168Z,7.15
2023-05-04T18:57:25.143Z,7.32
2023-05-04T19:02:30.342Z,6.97
2023-05-04T19:07:33.335Z,8.02
2023-05-04T19:12:36.782Z,8.13
2023-05-04T19:17:39.782Z,7.88
2023-05-04T19:22:42.737Z,8.02
2023-05-04T19:27:47.437Z,8.88
2023-05-04T19:32:51.056Z,8.30
2023-05-04T19:37:54.771Z,7.68
2023-05-04T19:42:57.717Z,9.10
2023-05-04T19:48:00.690Z,8.70
2023-05-04T19:53:05.185Z,8.57
2023-05-04T19:58:08.151Z,9.05
2023-05-04T20:03:11.280Z,9.40
2023-05-04T20:08:14.416Z,9.57
2023-05-04T20:13:17.391Z,9.80
2023-05-04T20:18:20.532Z,9.23
2023-05-04T20:23:23.603Z,9.27
2023-05-04T20:28:26.605Z,9.35
2023-05-04T20:33:29.476Z,9.52
2023-05-04T20:38:32.912Z,9.90
2023-05-04T20:43:36.330Z,10.15
2023-05-04T20:48:39.496Z,9.52
2023-05-04T20:53:42.757Z,9.85
2023-05-04T20:58:45.558Z,10.27
2023-05-04T21:03:48.932Z,10.18
2023-05-04T21:08:51.926Z,11.05
2023-05-04T21:13:54.806Z,11.02
2023-05-04T21:18:57.636Z,12.20
2023-05-04T21:24:00.549Z,11.18
2023-05-04T21:29:03.484Z,11.13
2023-05-04T21:34:06.758Z,12.30
2023-05-04T21:39:09.651Z,12.27
2023-05-04T21:44:15.905Z,12.20
2023-05-04T21:49:19.752Z,12.52
2023-05-04T21:54:24.097Z,13.07
2023-05-04T21:59:26.967Z,14.18
2023-05-04T22:04:30.746Z,14.85
2023-05-04T22:09:33.695Z,15.05
2023-05-04T22:14:36.735Z,15.30
2023-05-04T22:19:39.672Z,15.75
2023-05-04T22:24:42.963Z,15.30
2023-05-04T22:29:45.805Z,16.80
2023-05-04T22:34:48.649Z,16.95
2023-05-04T22:39:51.463Z,16.90
2023-05-04T22:44:54.216Z,16.23
2023-05-04T22:49:57.397Z,16.00
2023-05-04T22:55:00.149Z,15.75
2023-05-04T23:00:08.310Z,16.42
2023-05-04T23:05:11.485Z,15.77
2023-05-04T23:10:14.325Z,16.30
2023-05-04T23:15:18.545Z,16.17
2023-05-04T23:20:21.473Z,15.73
2023-05-04T23:25:24.382Z,16.95
2023-05-04T23:30:27.289Z,18.00
2023-05-04T23:35:30.117Z,17.95
2023-05-04T23:40:33.192Z,17.63
2023-05-04T23:45:36.048Z,18.65
2023-05-04T23:50:39.335Z,19.38
2023-05-04T23:55:42.130Z,20.92
